createdAt,value
2018-07-10T00:00:13.482Z,17.35
2018-07-10T00:03:24.642Z,17.61
2018-07-10T00:08:11.049Z,17.88
2018-07-10T00:11:48.591Z,17.42
2018-07-10T00:14:18.482Z,17.15
2018-07-10T00:16:48.258Z,17.78
2018-07-10T00:19:18.259Z,17.69
2018-07-10T00:21:48.034Z,18.23
2018-07-10T00:24:17.910Z,18.51
2018-07-10T00:26:48.017Z,18.44
2018-07-10T00:29:17.733Z,18.38
2018-07-10T00:31:47.498Z,17.97
2018-07-10T00:34:17.407Z,17.32
2018-07-10T00:36:47.159Z,17.74
2018-07-10T00:39:17.282Z,17.47
2018-07-10T00:41:47.101Z,17.03
2018-07-10T00:44:16.915Z,16.99
2018-07-10T00:46:46.806Z,16.74
2018-07-10T00:49:16.594Z,16.35
2018-07-10T00:51:46.311Z,16.43
2018-07-10T00:54:16.150Z,16.78
2018-07-10T00:56:46.104Z,16.75
2018-07-10T00:59:15.975Z,17.12
2018-07-10T01:01:46.278Z,17.66
2018-07-10T01:04:16.021Z,17.57
2018-07-10T01:06:45.918Z,17.88
2018-07-10T01:09:16.898Z,17.86
2018-07-10T01:11:46.786Z,18.20
2018-07-10T01:14:16.937Z,17.68
2018-07-10T01:16:46.663Z,17.05
2018-07-10T01:19:18.165Z,17.09
2018-07-10T01:21:49.002Z,17.22
2018-07-10T01:24:19.851Z,17.17
2018-07-10T01:26:51.386Z,17.80
2018-07-10T01:29:26.433Z,17.99
2018-07-10T01:31:56.624Z,18.15
2018-07-10T01:34:27.182Z,18.05
2018-07-10T01:36:57.017Z,18.26
2018-07-10T01:39:26.841Z,18.34
2018-07-10T01:41:56.765Z,18.34
2018-07-10T01:44:27.555Z,18.30
2018-07-10T01:46:57.454Z,18.28
2018-07-10T01:49:27.592Z,18.24
2018-07-10T01:51:57.490Z,18.07
2018-07-10T01:54:28.175Z,18.23
2018-07-10T01:56:58.079Z,18.30
2018-07-10T01:59:28.050Z,18.33
2018-07-10T02:01:57.971Z,18.16
2018-07-10T02:04:28.375Z,17.64
2018-07-10T02:06:58.469Z,17.96
2018-07-10T02:09:28.511Z,18.03
2018-07-10T02:11:58.817Z,18.17
2018-07-10T02:14:29.086Z,18.14
2018-07-10T02:16:59.026Z,18.09
2018-07-10T02:19:29.070Z,18.15
2018-07-10T02:21:59.041Z,17.79
2018-07-10T02:24:30.106Z,17.86
2018-07-10T02:27:00.512Z,17.99
2018-07-10T02:29:30.850Z,18.00
2018-07-10T02:32:00.909Z,17.90
2018-07-10T02:34:31.189Z,17.98
2018-07-10T02:37:02.075Z,17.76
2018-07-10T02:39:31.936Z,17.93
2018-07-10T02:42:02.152Z,17.91
2018-07-10T02:44:33.083Z,17.96
2018-07-10T02:47:03.079Z,17.82
2018-07-10T02:49:33.079Z,17.71
2018-07-10T02:52:06.077Z,17.65
2018-07-10T02:54:37.690Z,17.70
2018-07-10T02:57:09.720Z,17.48
2018-07-10T02:59:41.720Z,17.20
2018-07-10T03:02:24.635Z,17.47
2018-07-10T03:04:58.580Z,17.58
2018-07-10T03:07:30.135Z,17.63
2018-07-10T03:10:01.304Z,17.62
2018-07-10T03:12:35.727Z,17.43
2018-07-10T03:16:30.797Z,17.03
2018-07-10T03:19:00.675Z,17.40
2018-07-10T03:21:30.727Z,17.45
2018-07-10T03:24:00.586Z,17.60
2018-07-10T03:26:30.489Z,17.65
2018-07-10T03:29:00.493Z,16.98
2018-07-10T03:31:30.403Z,17.25
2018-07-10T03:34:00.499Z,17.56
2018-07-10T03:36:30.555Z,17.55
2018-07-10T03:39:01.063Z,17.61
2018-07-10T03:41:31.005Z,17.66
2018-07-10T03:44:01.785Z,17.69
2018-07-10T03:46:32.346Z,17.58
2018-07-10T03:49:02.430Z,17.70
2018-07-10T03:51:32.365Z,17.75
2018-07-10T03:54:03.412Z,17.64
2018-07-10T03:56:33.418Z,17.81
2018-07-10T03:59:03.439Z,17.65
2018-07-10T04:01:36.025Z,17.78
2018-07-10T04:04:06.722Z,17.92
2018-07-10T04:06:36.815Z,17.93
2018-07-10T04:09:08.115Z,17.82
2018-07-10T04:11:41.682Z,18.01
2018-07-10T04:14:12.340Z,18.15
2018-07-10T04:16:42.246Z,18.08
2018-07-10T04:19:12.183Z,18.24
2018-07-10T04:21:42.757Z,18.29
2018-07-10T04:24:16.369Z,18.25
2018-07-10T04:27:37.465Z,17.05
2018-07-10T04:30:14.506Z,16.79
2018-07-10T04:32:44.811Z,16.47
2018-07-10T04:35:21.413Z,16.57
2018-07-10T04:37:52.308Z,16.75
2018-07-10T04:40:22.298Z,16.77
2018-07-10T04:43:00.489Z,16.71
2018-07-10T04:45:42.260Z,16.84
2018-07-10T04:48:22.064Z,17.08
2018-07-10T04:50:56.525Z,17.76
2018-07-10T04:53:36.601Z,17.39
2018-07-10T04:56:06.635Z,17.20
2018-07-10T04:58:36.535Z,17.57
2018-07-10T05:01:06.882Z,17.58
2018-07-10T05:03:36.747Z,17.84
2018-07-10T05:06:09.001Z,18.03
2018-07-10T05:08:39.104Z,18.72
2018-07-10T05:11:09.383Z,18.17
2018-07-10T05:13:39.467Z,18.43
2018-07-10T05:16:09.512Z,18.99
2018-07-10T05:18:39.519Z,19.06
2018-07-10T05:21:15.911Z,19.34
2018-07-10T05:23:45.889Z,19.47
2018-07-10T05:26:18.554Z,19.33
2018-07-10T05:28:51.843Z,18.25
2018-07-10T05:31:23.576Z,18.38
2018-07-10T05:33:53.542Z,16.92
2018-07-10T05:36:25.210Z,18.53
2018-07-10T05:38:59.677Z,18.50
2018-07-10T05:41:30.936Z,19.59
2018-07-10T05:44:00.876Z,19.03
2018-07-10T05:46:30.783Z,18.58
2018-07-10T05:49:05.424Z,18.64
2018-07-10T05:51:52.463Z,19.06
2018-07-10T05:54:23.280Z,19.45
2018-07-10T05:56:53.157Z,20.03
2018-07-10T05:59:23.531Z,20.86
2018-07-10T06:01:54.756Z,20.84
2018-07-10T06:04:24.738Z,21.05
2018-07-10T06:06:54.643Z,20.01
2018-07-10T06:09:24.417Z,21.14
2018-07-10T06:11:55.445Z,21.28
2018-07-10T06:14:25.494Z,21.05
2018-07-10T06:16:55.404Z,21.29
2018-07-10T06:19:25.238Z,21.31
2018-07-10T06:21:55.163Z,21.35
2018-07-10T06:24:29.424Z,21.35
2018-07-10T06:27:06.127Z,21.34
2018-07-10T06:30:10.395Z,22.42
2018-07-10T06:32:53.791Z,22.73
2018-07-10T06:35:32.522Z,22.37
2018-07-10T06:38:02.890Z,22.20
2018-07-10T06:40:34.157Z,23.19
2018-07-10T06:43:15.718Z,23.49
2018-07-10T06:45:45.550Z,23.31
2018-07-10T06:48:15.481Z,23.46
2018-07-10T06:50:45.605Z,23.40
2018-07-10T06:53:16.017Z,24.63
2018-07-10T06:55:57.739Z,24.17
2018-07-10T06:58:31.939Z,24.26
2018-07-10T07:01:04.930Z,24.94
2018-07-10T07:03:34.913Z,24.70
2018-07-10T07:06:04.723Z,24.51
2018-07-10T07:08:34.617Z,24.08
2018-07-10T07:11:04.864Z,24.46
2018-07-10T07:13:34.674Z,25.11
2018-07-10T07:16:04.607Z,24.95
2018-07-10T07:18:34.417Z,24.50
2018-07-10T07:21:05.260Z,25.07
2018-07-10T07:23:35.251Z,26.28
2018-07-10T07:26:09.142Z,26.25
2018-07-10T07:28:39.278Z,26.57
2018-07-10T07:31:10.311Z,24.03
2018-07-10T07:33:40.242Z,26.77
2018-07-10T07:36:09.863Z,25.15
2018-07-10T07:38:39.665Z,26.46
2018-07-10T07:41:09.953Z,26.77
2018-07-10T07:43:39.978Z,25.80
2018-07-10T07:46:09.721Z,26.42
2018-07-10T07:48:39.777Z,26.97
2018-07-10T07:51:09.780Z,27.26
2018-07-10T07:53:39.801Z,27.61
2018-07-10T07:56:09.713Z,27.48
2018-07-10T07:58:39.518Z,26.84
2018-07-10T08:01:09.480Z,27.21
2018-07-10T08:03:39.771Z,26.87
2018-07-10T08:06:09.872Z,27.65
2018-07-10T08:08:39.967Z,27.22
2018-07-10T08:11:10.586Z,28.13
2018-07-10T08:13:40.687Z,28.36
2018-07-10T08:16:10.645Z,28.95
2018-07-10T08:18:40.554Z,29.19
2018-07-10T08:21:11.270Z,28.34
2018-07-10T08:23:41.213Z,27.03
2018-07-10T08:26:11.304Z,27.87
2018-07-10T08:28:41.354Z,27.93
2018-07-10T08:31:11.289Z,27.52
2018-07-10T08:33:41.372Z,29.05
2018-07-10T08:36:11.467Z,28.80
2018-07-10T08:38:42.662Z,28.26
2018-07-10T08:41:19.567Z,27.07
2018-07-10T08:43:49.659Z,27.60
2018-07-10T08:46:25.375Z,28.22
2018-07-10T08:48:55.934Z,29.05
2018-07-10T08:51:26.521Z,28.16
2018-07-10T08:53:57.257Z,27.84
2018-07-10T08:56:28.156Z,27.68
2018-07-10T08:58:58.373Z,28.69
2018-07-10T09:01:31.109Z,29.01
2018-07-10T09:04:01.454Z,29.76
2018-07-10T09:06:32.314Z,29.78
2018-07-10T09:09:03.217Z,29.19
2018-07-10T09:11:34.392Z,29.51
2018-07-10T09:14:04.800Z,28.60
2018-07-10T09:16:35.413Z,29.15
2018-07-10T09:19:06.841Z,29.75
2018-07-10T09:21:37.794Z,29.85
2018-07-10T09:24:08.932Z,30.09
2018-07-10T09:26:39.500Z,30.55
2018-07-10T09:29:10.519Z,29.76
2018-07-10T09:31:41.058Z,30.11
2018-07-10T09:34:11.708Z,29.97
2018-07-10T09:36:42.321Z,29.76
2018-07-10T09:39:13.462Z,30.28
2018-07-10T09:41:44.165Z,30.64
2018-07-10T09:44:14.633Z,31.34
2018-07-10T09:46:44.690Z,30.55
2018-07-10T09:49:14.672Z,30.23
2018-07-10T09:51:45.210Z,31.68
2018-07-10T09:54:15.133Z,31.72
2018-07-10T09:56:45.116Z,31.98
2018-07-10T09:59:15.296Z,30.62
2018-07-10T10:01:45.860Z,30.17
2018-07-10T10:04:16.084Z,31.88
2018-07-10T10:06:46.005Z,32.84
2018-07-10T10:09:16.002Z,33.18
2018-07-10T10:11:45.862Z,34.10
2018-07-10T10:14:15.883Z,33.74
2018-07-10T10:16:45.950Z,31.71
2018-07-10T10:19:16.104Z,31.76
2018-07-10T10:21:46.517Z,32.77
2018-07-10T10:24:16.503Z,32.50
2018-07-10T10:26:46.655Z,32.01
2018-07-10T10:29:16.663Z,32.99
2018-07-10T10:31:47.394Z,32.64
2018-07-10T10:34:17.673Z,33.32
2018-07-10T10:36:47.484Z,32.12
2018-07-10T10:39:17.638Z,32.55
2018-07-10T10:41:48.848Z,32.76
2018-07-10T10:44:18.781Z,32.28
2018-07-10T10:46:48.949Z,32.45
2018-07-10T10:49:18.894Z,32.29
2018-07-10T10:51:49.987Z,31.80
2018-07-10T10:54:20.127Z,32.13
2018-07-10T10:56:50.061Z,32.20
2018-07-10T10:59:20.138Z,30.89
2018-07-10T11:01:51.129Z,30.09
2018-07-10T11:04:21.243Z,29.60
2018-07-10T11:06:51.451Z,28.77
2018-07-10T11:09:21.473Z,29.31
2018-07-10T11:11:51.888Z,29.58
2018-07-10T11:14:22.002Z,30.94
2018-07-10T11:16:52.166Z,31.23
2018-07-10T11:20:30.883Z,31.63
2018-07-10T11:23:08.322Z,32.39
2018-07-10T11:25:42.744Z,32.62
2018-07-10T11:28:14.047Z,32.35
2018-07-10T11:30:44.192Z,33.22
2018-07-10T11:33:14.252Z,32.49
2018-07-10T11:35:44.347Z,32.32
2018-07-10T11:38:15.273Z,30.97
2018-07-10T11:40:47.134Z,30.71
2018-07-10T11:43:16.974Z,30.34
2018-07-10T11:45:47.048Z,30.52
2018-07-10T11:48:16.898Z,31.86
2018-07-10T11:50:46.752Z,31.33
2018-07-10T11:53:16.799Z,31.58
2018-07-10T11:55:46.885Z,32.28
2018-07-10T11:58:16.880Z,33.52
2018-07-10T12:00:46.929Z,33.36
2018-07-10T12:03:16.739Z,30.68
2018-07-10T12:05:46.567Z,30.60
2018-07-10T12:08:16.502Z,30.61
2018-07-10T12:10:50.480Z,29.54
2018-07-10T12:13:20.483Z,29.52
2018-07-10T12:15:50.399Z,29.99
2018-07-10T12:18:20.645Z,29.83
2018-07-10T12:20:50.803Z,29.17
2018-07-10T12:23:20.798Z,29.68
2018-07-10T12:25:50.790Z,29.41
2018-07-10T12:28:21.443Z,29.10
2018-07-10T12:30:51.534Z,28.73
2018-07-10T12:33:21.517Z,29.83
2018-07-10T12:35:51.440Z,29.85
2018-07-10T12:38:21.357Z,30.14
2018-07-10T12:40:51.290Z,31.20
2018-07-10T12:43:21.243Z,31.37
2018-07-10T12:45:51.258Z,30.12
2018-07-10T12:48:21.139Z,31.20
2018-07-10T12:50:51.218Z,30.80
2018-07-10T12:53:21.164Z,30.33
2018-07-10T12:55:51.172Z,29.60
2018-07-10T12:58:21.186Z,29.17
2018-07-10T13:00:51.955Z,29.72
2018-07-10T13:03:24.254Z,28.93
2018-07-10T13:05:57.700Z,28.83
2018-07-10T13:08:27.887Z,28.85
2018-07-10T13:10:57.796Z,29.86
2018-07-10T13:13:27.591Z,30.66
2018-07-10T13:15:57.414Z,29.93
2018-07-10T13:18:30.251Z,28.98
2018-07-10T13:21:00.235Z,29.34
2018-07-10T13:23:30.181Z,30.06
2018-07-10T13:26:00.037Z,30.35
2018-07-10T13:28:30.357Z,31.33
2018-07-10T13:31:00.323Z,30.87
2018-07-10T13:33:30.392Z,31.21
2018-07-10T13:36:00.289Z,30.60
2018-07-10T13:38:30.338Z,30.42
2018-07-10T13:41:01.996Z,29.66
2018-07-10T13:43:31.803Z,29.64
2018-07-10T13:46:01.817Z,29.33
2018-07-10T13:48:32.312Z,29.26
2018-07-10T13:51:02.317Z,29.81
2018-07-10T13:53:32.331Z,29.95
2018-07-10T13:56:02.266Z,29.42
2018-07-10T13:58:33.686Z,30.00
2018-07-10T14:01:05.645Z,30.29
2018-07-10T14:03:36.130Z,30.47
2018-07-10T14:06:06.447Z,30.42
2018-07-10T14:08:36.503Z,29.94
2018-07-10T14:11:06.442Z,29.27
2018-07-10T14:13:36.490Z,28.55
2018-07-10T14:16:06.409Z,29.33
2018-07-10T14:18:36.233Z,29.51
2018-07-10T14:21:08.922Z,29.97
2018-07-10T14:23:38.814Z,29.50
2018-07-10T14:26:08.974Z,30.16
2018-07-10T14:28:39.253Z,30.14
2018-07-10T14:31:09.139Z,29.91
2018-07-10T14:33:39.153Z,29.22
2018-07-10T14:36:09.340Z,29.37
2018-07-10T14:38:42.638Z,28.75
2018-07-10T14:41:13.337Z,28.54
2018-07-10T14:43:45.181Z,28.68
2018-07-10T14:46:22.070Z,28.39
2018-07-10T14:49:08.339Z,28.13
2018-07-10T14:51:46.991Z,28.47
2018-07-10T14:54:17.565Z,28.49
2018-07-10T14:56:47.697Z,28.22
2018-07-10T14:59:17.627Z,27.58
2018-07-10T15:01:47.670Z,28.31
2018-07-10T15:04:17.531Z,27.80
2018-07-10T15:06:47.430Z,27.58
2018-07-10T15:09:17.724Z,27.23
2018-07-10T15:11:47.528Z,27.07
2018-07-10T15:14:17.504Z,26.58
2018-07-10T15:16:52.291Z,26.01
2018-07-10T15:19:22.147Z,25.90
2018-07-10T15:21:52.121Z,26.10
2018-07-10T15:24:22.044Z,26.02
2018-07-10T15:26:52.872Z,25.63
2018-07-10T15:29:28.775Z,25.63
2018-07-10T15:31:59.980Z,25.39
2018-07-10T15:34:29.722Z,25.65
2018-07-10T15:36:59.749Z,25.60
2018-07-10T15:39:29.706Z,25.78
2018-07-10T15:41:59.549Z,26.02
2018-07-10T15:44:29.246Z,25.98
2018-07-10T15:46:59.207Z,26.05
2018-07-10T15:49:29.023Z,26.14
2018-07-10T15:51:59.005Z,26.01
2018-07-10T15:54:29.045Z,26.10
2018-07-10T15:56:58.893Z,26.19
2018-07-10T15:59:28.911Z,26.49
2018-07-10T16:01:58.813Z,26.44
2018-07-10T16:04:28.694Z,26.33
2018-07-10T16:06:58.614Z,26.13
2018-07-10T16:09:28.634Z,26.30
2018-07-10T16:12:02.740Z,26.48
2018-07-10T16:14:32.732Z,26.44
2018-07-10T16:17:07.805Z,26.08
2018-07-10T16:19:45.342Z,25.73
2018-07-10T16:22:26.346Z,26.08
2018-07-10T16:25:00.260Z,25.56
2018-07-10T16:27:36.402Z,25.55
2018-07-10T16:30:06.884Z,25.34
2018-07-10T16:32:41.352Z,25.95
2018-07-10T16:35:12.801Z,25.99
2018-07-10T16:37:42.684Z,25.99
2018-07-10T16:40:12.661Z,25.63
2018-07-10T16:42:52.471Z,25.39
2018-07-10T16:45:29.826Z,24.62
2018-07-10T16:49:10.961Z,24.58
2018-07-10T16:52:54.033Z,24.89
2018-07-10T16:55:24.827Z,25.25
2018-07-10T16:57:54.991Z,24.57
2018-07-10T17:00:25.908Z,24.64
2018-07-10T17:02:56.538Z,24.89
2018-07-10T17:05:27.710Z,25.21
2018-07-10T17:07:57.726Z,25.53
2018-07-10T17:10:27.612Z,25.41
2018-07-10T17:12:57.597Z,25.38
2018-07-10T17:15:28.102Z,24.92
2018-07-10T17:17:57.826Z,25.08
2018-07-10T17:20:27.768Z,25.29
2018-07-10T17:22:57.466Z,25.35
2018-07-10T17:25:27.541Z,25.11
2018-07-10T17:27:57.488Z,25.22
2018-07-10T17:30:27.334Z,25.30
2018-07-10T17:32:57.274Z,25.32
2018-07-10T17:35:27.182Z,25.35
2018-07-10T17:37:57.412Z,25.25
2018-07-10T17:40:27.207Z,25.09
2018-07-10T17:42:57.255Z,24.83
2018-07-10T17:45:26.904Z,24.75
2018-07-10T17:47:56.796Z,24.66
2018-07-10T17:50:26.750Z,24.34
2018-07-10T17:52:57.250Z,23.72
2018-07-10T17:55:27.560Z,23.80
2018-07-10T17:58:04.818Z,23.36
2018-07-10T18:00:35.331Z,23.38
2018-07-10T18:03:05.238Z,23.34
2018-07-10T18:05:35.691Z,23.91
2018-07-10T18:08:05.463Z,24.18
2018-07-10T18:10:35.265Z,24.31
2018-07-10T18:13:05.370Z,24.37
2018-07-10T18:15:35.043Z,24.39
2018-07-10T18:18:04.958Z,24.41
2018-07-10T18:20:35.003Z,21.92
2018-07-10T18:23:05.479Z,23.74
2018-07-10T18:25:36.496Z,23.10
2018-07-10T18:28:06.504Z,23.02
2018-07-10T18:30:36.334Z,22.85
2018-07-10T18:33:06.347Z,22.51
2018-07-10T18:35:36.588Z,22.57
2018-07-10T18:38:06.815Z,22.95
2018-07-10T18:40:36.779Z,23.26
2018-07-10T18:43:06.641Z,23.47
2018-07-10T18:45:37.632Z,23.54
2018-07-10T18:48:07.541Z,23.56
2018-07-10T18:50:37.382Z,23.52
2018-07-10T18:53:07.337Z,23.53
2018-07-10T18:55:37.900Z,23.59
2018-07-10T18:58:14.028Z,23.54
2018-07-10T19:00:55.388Z,23.56
2018-07-10T19:03:25.246Z,23.51
2018-07-10T19:05:57.201Z,23.48
2018-07-10T19:08:27.212Z,22.87
2018-07-10T19:10:57.279Z,22.17
2018-07-10T19:13:27.198Z,21.49
2018-07-10T19:15:57.033Z,21.10
2018-07-10T19:18:26.992Z,20.96
2018-07-10T19:21:02.579Z,21.11
2018-07-10T19:23:46.653Z,21.19
2018-07-10T19:26:17.270Z,20.88
2018-07-10T19:28:48.316Z,20.74
2018-07-10T19:31:21.952Z,20.73
2018-07-10T19:33:54.630Z,20.56
2018-07-10T19:36:26.720Z,20.78
2018-07-10T19:38:56.914Z,20.80
2018-07-10T19:41:27.203Z,21.00
2018-07-10T19:43:57.212Z,20.90
2018-07-10T19:46:27.876Z,20.99
2018-07-10T19:48:57.761Z,20.77
2018-07-10T19:51:29.335Z,20.81
2018-07-10T19:54:09.946Z,20.86
2018-07-10T19:56:40.585Z,21.27
2018-07-10T19:59:12.774Z,21.85
2018-07-10T20:01:50.882Z,21.65
2018-07-10T20:04:25.873Z,21.60
2018-07-10T20:07:18.714Z,21.51
2018-07-10T20:09:53.408Z,21.46
2018-07-10T20:12:38.029Z,21.63
2018-07-10T20:15:24.237Z,21.62
2018-07-10T20:18:01.474Z,21.69
2018-07-10T20:20:34.337Z,22.00
2018-07-10T20:25:17.102Z,21.98
2018-07-10T20:27:55.989Z,21.89
2018-07-10T20:30:49.287Z,22.17
2018-07-10T20:33:30.467Z,22.28
2018-07-10T20:36:03.985Z,22.32
2018-07-10T20:38:33.715Z,22.20
2018-07-10T20:41:05.139Z,21.96
2018-07-10T20:43:40.266Z,21.67
2018-07-10T20:46:12.589Z,21.59
2018-07-10T20:48:48.703Z,21.38
2018-07-10T20:51:20.180Z,21.61
2018-07-10T20:54:57.969Z,21.39
2018-07-10T20:57:38.382Z,20.19
2018-07-10T21:00:11.029Z,20.06
2018-07-10T21:04:53.931Z,19.90
2018-07-10T21:07:30.317Z,19.61
2018-07-10T21:10:18.487Z,19.55
2018-07-10T21:13:10.204Z,20.03
2018-07-10T21:16:04.374Z,19.66
2018-07-10T21:18:48.524Z,19.82
2018-07-10T21:22:02.547Z,19.36
2018-07-10T21:24:39.581Z,19.30
2018-07-10T21:27:13.532Z,19.61
2018-07-10T21:29:57.318Z,19.98
2018-07-10T21:33:38.352Z,20.06
2018-07-10T21:36:13.769Z,20.57
2018-07-10T21:39:06.732Z,20.79
2018-07-10T21:41:47.049Z,20.78
2018-07-10T21:46:44.614Z,20.93
2018-07-10T21:49:40.399Z,20.46
2018-07-10T21:52:10.072Z,20.67
2018-07-10T21:54:40.146Z,20.63
2018-07-10T21:57:12.179Z,20.69
2018-07-10T21:59:46.257Z,19.91
2018-07-10T22:02:16.224Z,20.48
2018-07-10T22:04:46.149Z,20.66
2018-07-10T22:07:17.159Z,20.73
2018-07-10T22:09:47.110Z,20.83
2018-07-10T22:12:18.641Z,20.76
2018-07-10T22:14:48.719Z,20.74
2018-07-10T22:17:24.872Z,20.86
2018-07-10T22:19:55.861Z,20.85
2018-07-10T22:22:28.614Z,20.50
2018-07-10T22:25:00.647Z,20.66
2018-07-10T22:27:30.961Z,20.75
2018-07-10T22:30:05.949Z,20.69
2018-07-10T22:32:46.004Z,20.73
2018-07-10T22:35:16.831Z,20.75
2018-07-10T22:37:47.384Z,20.61
2018-07-10T22:40:19.111Z,20.52
2018-07-10T22:42:49.133Z,20.52
2018-07-10T22:45:20.365Z,20.55
2018-07-10T22:47:51.950Z,20.55
2018-07-10T22:50:24.214Z,20.20
2018-07-10T22:52:59.153Z,19.92
2018-07-10T22:55:34.094Z,19.55
2018-07-10T22:58:08.165Z,19.07
2018-07-10T23:00:40.371Z,19.50
2018-07-10T23:03:18.151Z,19.95
2018-07-10T23:05:49.422Z,20.15
2018-07-10T23:08:23.523Z,20.04
2018-07-10T23:10:53.452Z,20.00
2018-07-10T23:13:23.456Z,20.26
2018-07-10T23:15:53.429Z,20.38
2018-07-10T23:18:24.420Z,20.35
2018-07-10T23:20:54.416Z,20.26
2018-07-10T23:23:24.961Z,20.32
2018-07-10T23:25:54.946Z,20.23
2018-07-10T23:28:27.158Z,20.26
2018-07-10T23:30:57.117Z,20.30
2018-07-10T23:33:27.749Z,20.29
2018-07-10T23:35:59.762Z,19.18
2018-07-10T23:39:41.311Z,19.25
2018-07-10T23:42:17.287Z,19.14
2018-07-10T23:44:49.154Z,19.20
2018-07-10T23:47:29.495Z,19.57
2018-07-10T23:50:11.731Z,19.75
2018-07-10T23:54:50.523Z,19.86
2018-07-10T23:57:21.004Z,19.82
2018-07-10T23:59:50.938Z,19.88
